createdAt,value
2022-09-24T00:02:35.760Z,8.39
2022-09-24T00:07:17.101Z,7.9
2022-09-24T00:11:59.375Z,8.6
2022-09-24T00:16:41.597Z,10.3
2022-09-24T00:21:23.909Z,11
2022-09-24T00:26:06.108Z,9.7
2022-09-24T00:30:48.422Z,10.2
2022-09-24T00:35:30.742Z,9.8
2022-09-24T00:40:13.062Z,9.2
2022-09-24T00:44:55.313Z,9.1
2022-09-24T00:49:37.574Z,8.8
2022-09-24T00:54:19.893Z,8.7
2022-09-24T00:59:02.098Z,7.9
2022-09-24T01:03:44.408Z,8.89
2022-09-24T01:08:25.722Z,8.2
2022-09-24T01:13:08.067Z,7.6
2022-09-24T01:17:50.248Z,6.7
2022-09-24T01:22:32.545Z,7
2022-09-24T01:27:14.908Z,6.6
2022-09-24T01:31:57.073Z,7
2022-09-24T01:36:39.382Z,6.1
2022-09-24T01:41:21.689Z,7.3
2022-09-24T01:46:03.923Z,6.4
2022-09-24T01:50:46.242Z,7.7
2022-09-24T01:55:28.553Z,7.7
2022-09-24T02:00:10.748Z,7.1
2022-09-24T02:04:53.053Z,8.5
2022-09-24T02:09:34.362Z,8.1
2022-09-24T02:14:16.688Z,7.5
2022-09-24T02:18:58.885Z,8.2
2022-09-24T02:23:41.190Z,8.1
2022-09-24T02:28:23.502Z,7.8
2022-09-24T02:33:05.744Z,8
2022-09-24T02:37:48.020Z,8.89
2022-09-24T02:42:30.336Z,7.7
2022-09-24T02:47:12.659Z,8.2
2022-09-24T02:51:54.887Z,7.6
2022-09-24T02:56:37.174Z,7.5
2022-09-24T03:01:19.481Z,7.7
2022-09-24T03:06:01.723Z,8.1
2022-09-24T03:10:43.005Z,8.1
2022-09-24T03:15:25.316Z,6.9
2022-09-24T03:20:07.645Z,7.5
2022-09-24T03:24:49.833Z,8.2
2022-09-24T03:29:32.149Z,8.39
2022-09-24T03:34:14.457Z,8.39
2022-09-24T03:38:56.671Z,8.7
2022-09-24T03:43:38.977Z,9
2022-09-24T03:48:21.297Z,10.1
2022-09-24T03:53:03.505Z,9.8
2022-09-24T03:57:45.888Z,9.1
2022-09-24T04:02:28.126Z,8.7
2022-09-24T04:07:10.344Z,8.8
2022-09-24T04:16:33.965Z,7.9
2022-09-24T04:21:16.279Z,7.4
2022-09-24T04:25:58.501Z,8.3
2022-09-24T04:30:40.795Z,8.7
2022-09-24T04:35:23.126Z,8.7
2022-09-24T04:40:05.312Z,9.1
2022-09-24T04:44:47.660Z,8
2022-09-24T04:49:30.054Z,11.1
2022-09-24T04:54:12.151Z,9.8
2022-09-24T04:58:54.503Z,10.6
2022-09-24T05:03:36.772Z,9.5
2022-09-24T05:08:18.084Z,8.89
2022-09-24T05:12:59.389Z,9.39
2022-09-24T05:17:41.624Z,8.89
2022-09-24T05:22:22.929Z,10
2022-09-24T05:27:04.225Z,10.2
2022-09-24T05:31:46.544Z,9.1
2022-09-24T05:36:28.847Z,10.1
2022-09-24T05:41:11.058Z,10.9
2022-09-24T05:45:53.373Z,10.8
2022-09-24T05:50:35.685Z,10.6
2022-09-24T05:55:17.890Z,10.9
2022-09-24T06:00:00.211Z,12.8
2022-09-24T06:04:42.621Z,10.7
2022-09-24T06:09:24.828Z,11.2
2022-09-24T06:14:07.034Z,10.8
2022-09-24T06:18:49.349Z,10.6
2022-09-24T06:23:31.659Z,10.2
2022-09-24T06:28:12.882Z,10.1
2022-09-24T06:32:55.185Z,10.8
2022-09-24T06:37:37.556Z,11.1
2022-09-24T06:42:19.706Z,11.8
2022-09-24T06:47:02.013Z,12.6
2022-09-24T06:51:44.335Z,12
2022-09-24T06:56:26.637Z,12.3
2022-09-24T07:01:08.004Z,12
2022-09-24T07:05:49.161Z,11.7
2022-09-24T07:10:31.470Z,9.89
2022-09-24T07:15:13.813Z,10.1
2022-09-24T07:19:55.995Z,9
2022-09-24T07:24:38.320Z,10.5
2022-09-24T07:29:19.637Z,10.6
2022-09-24T07:34:00.934Z,8.2
2022-09-24T07:38:43.240Z,9.39
2022-09-24T07:43:25.471Z,8.8
2022-09-24T07:48:07.786Z,8.8
2022-09-24T07:52:50.071Z,7.6
2022-09-24T07:57:32.287Z,8.5
2022-09-24T08:02:14.592Z,7.8
2022-09-24T08:06:56.908Z,7.9
2022-09-24T08:11:39.155Z,7.7
2022-09-24T08:16:21.462Z,7.7
2022-09-24T08:21:03.743Z,8
2022-09-24T08:25:45.963Z,20.8
2022-09-24T08:30:28.264Z,8.1
2022-09-24T08:35:09.604Z,8.1
2022-09-24T08:39:51.895Z,7
2022-09-24T08:44:33.200Z,6.5
2022-09-24T08:49:15.407Z,6.7
2022-09-24T08:53:57.768Z,6.7
2022-09-24T08:58:40.050Z,5
2022-09-24T09:03:22.284Z,5.8
2022-09-24T09:08:04.603Z,7.6
2022-09-24T09:12:46.919Z,6.7
2022-09-24T09:17:29.078Z,5.7
2022-09-24T09:22:11.457Z,6.9
2022-09-24T09:26:53.709Z,6.4
2022-09-24T09:31:35.930Z,6.1
2022-09-24T09:36:18.254Z,5.9
2022-09-24T09:41:00.600Z,7
2022-09-24T09:45:41.750Z,6.8
2022-09-24T09:50:24.067Z,8.1
2022-09-24T09:55:06.379Z,7.4
2022-09-24T09:59:48.668Z,7.8
2022-09-24T10:04:30.885Z,8.39
2022-09-24T10:09:13.187Z,7.9
2022-09-24T10:13:55.503Z,8.6
2022-09-24T10:18:36.833Z,7.5
2022-09-24T10:23:19.026Z,7.4
2022-09-24T10:28:00.333Z,7.5
2022-09-24T10:32:42.646Z,9.1
2022-09-24T10:37:25.008Z,8.3
2022-09-24T10:42:07.171Z,10.3
2022-09-24T10:46:48.495Z,7.5
2022-09-24T10:51:29.784Z,8.6
2022-09-24T10:56:12.106Z,9.89
2022-09-24T11:00:54.315Z,10.7
2022-09-24T11:05:36.729Z,9.3
2022-09-24T11:10:18.939Z,9.2
2022-09-24T11:15:01.147Z,10.9
2022-09-24T11:19:43.495Z,9.39
2022-09-24T11:24:25.784Z,10.9
2022-09-24T11:29:08.011Z,9.89
2022-09-24T11:33:50.296Z,10.2
2022-09-24T11:38:32.610Z,11.3
2022-09-24T11:43:14.820Z,10.7
2022-09-24T11:47:57.130Z,9.6
2022-09-24T11:52:38.452Z,10.5
2022-09-24T11:57:20.751Z,11.3
2022-09-24T12:02:02.964Z,10
2022-09-24T12:06:45.275Z,11.4
2022-09-24T12:11:27.662Z,10
2022-09-24T12:16:09.800Z,12.2
2022-09-24T12:20:52.114Z,10.8
2022-09-24T12:25:34.428Z,10.4
2022-09-24T12:30:16.640Z,9.8
2022-09-24T12:34:58.970Z,10.5
2022-09-24T12:39:41.258Z,11.2
2022-09-24T12:44:23.494Z,15.5
2022-09-24T12:49:05.786Z,11.6
2022-09-24T12:53:47.117Z,12.7
2022-09-24T12:58:29.307Z,15.8
2022-09-24T13:03:11.682Z,13.1
2022-09-24T13:07:53.927Z,13.5
2022-09-24T13:12:36.190Z,11.9
2022-09-24T13:17:18.458Z,13
2022-09-24T13:22:00.766Z,15.1
2022-09-24T13:26:42.985Z,9.6
2022-09-24T13:31:25.291Z,9.1
2022-09-24T13:36:07.604Z,9.7
2022-09-24T13:40:49.813Z,10.9
2022-09-24T13:45:32.129Z,10.5
2022-09-24T13:50:14.460Z,11.3
2022-09-24T13:54:56.650Z,13.6
2022-09-24T13:59:37.957Z,10.3
2022-09-24T14:04:20.318Z,10
2022-09-24T14:09:02.584Z,9.89
2022-09-24T14:13:44.839Z,10
2022-09-24T14:18:27.106Z,10.7
2022-09-24T14:23:09.416Z,11.9
2022-09-24T14:27:51.640Z,10.1
2022-09-24T14:32:33.999Z,11.7
2022-09-24T14:37:16.257Z,11.5
2022-09-24T14:41:58.467Z,11.2
2022-09-24T14:46:40.779Z,11.3
2022-09-24T14:51:23.104Z,11.6
2022-09-24T14:56:05.315Z,10
2022-09-24T15:00:46.609Z,10.2
2022-09-24T15:05:28.921Z,11.1
2022-09-24T15:10:11.133Z,10.5
2022-09-24T15:14:53.450Z,10.3
2022-09-24T15:19:35.754Z,12.3
2022-09-24T15:24:17.968Z,12.2
2022-09-24T15:29:00.319Z,11.5
2022-09-24T15:33:42.686Z,14.8
2022-09-24T15:38:24.907Z,16.2
2022-09-24T15:43:07.115Z,15.6
2022-09-24T15:47:49.427Z,15.5
2022-09-24T15:52:31.772Z,15.5
2022-09-24T15:57:13.953Z,18
2022-09-24T16:01:55.272Z,22.2
2022-09-24T16:06:37.570Z,24.1
2022-09-24T16:11:19.780Z,22.7
2022-09-24T16:16:02.091Z,26.2
2022-09-24T16:20:44.402Z,21.6
2022-09-24T16:25:26.614Z,20.1
2022-09-24T16:30:08.930Z,19.5
2022-09-24T16:34:51.243Z,16.2
2022-09-24T16:39:33.483Z,15.8
2022-09-24T16:44:15.763Z,18.6
2022-09-24T16:48:58.071Z,19.1
2022-09-24T16:53:40.286Z,19.9
2022-09-24T16:58:22.632Z,19.2
2022-09-24T17:03:03.912Z,20.29
2022-09-24T17:07:46.216Z,19.5
2022-09-24T17:12:28.441Z,19.9
2022-09-24T17:17:10.742Z,18.6
2022-09-24T17:21:53.049Z,18.6
2022-09-24T17:26:35.278Z,21.6
2022-09-24T17:31:17.681Z,18.79
2022-09-24T17:35:59.935Z,23.2
2022-09-24T17:40:42.112Z,21.4
2022-09-24T17:45:24.452Z,20.9
2022-09-24T17:50:06.719Z,20.4
2022-09-24T17:54:48.931Z,20.8
2022-09-24T17:59:31.287Z,23.4
2022-09-24T18:04:12.651Z,21.3
2022-09-24T18:08:54.860Z,24.1
2022-09-24T18:13:37.118Z,24.3
2022-09-24T18:18:19.456Z,23.8
2022-09-24T18:23:01.828Z,25
2022-09-24T18:27:44.027Z,26.2
2022-09-24T18:32:26.222Z,20.8
2022-09-24T18:41:50.738Z,22.2
2022-09-24T18:46:33.082Z,20.7
2022-09-24T18:51:15.366Z,25.2
2022-09-24T18:55:57.575Z,28
2022-09-24T19:00:39.890Z,28.9
2022-09-24T19:05:21.193Z,23.2
2022-09-24T19:10:03.507Z,21
2022-09-24T19:14:45.717Z,22.7
2022-09-24T19:19:28.073Z,23.4
2022-09-24T19:24:10.384Z,22.4
2022-09-24T19:28:52.558Z,23.6
2022-09-24T19:33:34.862Z,23.5
2022-09-24T19:38:17.201Z,24.5
2022-09-24T19:42:59.386Z,25.4
2022-09-24T19:47:41.697Z,25.8
2022-09-24T19:52:24.007Z,24.8
2022-09-24T19:57:06.227Z,25.7
2022-09-24T20:01:48.612Z,27.8
2022-09-24T20:06:29.878Z,24.5
2022-09-24T20:11:12.153Z,25.9
2022-09-24T20:15:54.368Z,25.8
2022-09-24T20:20:36.678Z,26.4
2022-09-24T20:25:18.986Z,26.4
2022-09-24T20:30:01.198Z,26.9
2022-09-24T20:34:43.539Z,26.9
2022-09-24T20:39:25.845Z,28.1
2022-09-24T20:44:08.045Z,29.3
2022-09-24T20:48:50.345Z,30.3
2022-09-24T20:53:32.688Z,30.8
2022-09-24T20:58:14.975Z,29.9
2022-09-24T21:02:57.189Z,31
2022-09-24T21:07:38.538Z,32.3
2022-09-24T21:12:20.861Z,29.5
2022-09-24T21:17:03.009Z,30.4
2022-09-24T21:21:45.392Z,29.1
2022-09-24T21:26:27.631Z,24.2
2022-09-24T21:31:09.844Z,21.8
2022-09-24T21:35:52.156Z,21
2022-09-24T21:40:34.470Z,21.6
2022-09-24T21:45:16.782Z,20.5
2022-09-24T21:49:58.990Z,20.6
2022-09-24T21:54:41.338Z,22.1
2022-09-24T21:59:23.528Z,22.8
2022-09-24T22:04:05.836Z,23.4
2022-09-24T22:08:47.133Z,24.1
2022-09-24T22:13:29.445Z,25.3
2022-09-24T22:18:11.657Z,25.4
2022-09-24T22:22:53.957Z,27.8
2022-09-24T22:27:36.264Z,30
2022-09-24T22:32:18.481Z,29
2022-09-24T22:37:00.787Z,29.8
2022-09-24T22:41:43.127Z,30.6
2022-09-24T22:46:25.309Z,27.9
2022-09-24T22:51:07.679Z,29.7
2022-09-24T22:55:49.946Z,31.3
2022-09-24T23:00:32.146Z,30.2
2022-09-24T23:05:14.459Z,29.8
2022-09-24T23:09:55.769Z,31.6
2022-09-24T23:14:38.087Z,29.9
2022-09-24T23:19:20.289Z,30.6
2022-09-24T23:24:02.646Z,29.5
2022-09-24T23:28:44.917Z,26.5
2022-09-24T23:33:27.124Z,27.2
2022-09-24T23:38:09.453Z,29.5
2022-09-24T23:42:51.748Z,28.7
2022-09-24T23:47:33.963Z,26.2
2022-09-24T23:52:16.273Z,26.3
2022-09-24T23:56:58.583Z,27.2
